Time;durP1;ratioP1;P1;durP2;ratioP2;P2;SDS_P1;SDS_P2;PMS_P1;PMS_P2;Temp;Humidity;BMP_temperature;BMP_pressure;BME280_temperature;BME280_humidity;BME280_pressure;Samples;Min_cycle;Max_cycle;Signal;HPM_P1;HPM_P2
2022/03/15 00:01:13;;;;;;;39.70;24.92;;;;;;;12.27;49.08;102205.34;5011096;28;20042;-72
2022/03/15 00:03:40;;;;;;;36.90;24.20;;;;;;;12.36;48.77;102207.22;5012768;28;20117;-73
2022/03/15 00:06:06;;;;;;;38.30;24.80;;;;;;;12.39;48.51;102206.97;5012079;28;20405;-73
2022/03/15 00:08:33;;;;;;;37.72;24.02;;;;;;;12.13;49.32;102214.63;5011509;28;20169;-72
2022/03/15 00:11:02;;;;;;;39.17;25.45;;;;;;;11.83;50.06;102212.78;5012273;28;20073;-73
2022/03/15 00:13:29;;;;;;;41.20;24.27;;;;;;;12.36;48.95;102209.91;5011655;28;20045;-72
2022/03/15 00:15:58;;;;;;;40.00;25.05;;;;;;;12.06;49.45;102218.81;4993227;28;20065;-72
2022/03/15 00:18:26;;;;;;;36.65;24.85;;;;;;;11.63;50.39;102217.13;5013171;28;20521;-73
2022/03/15 00:20:52;;;;;;;36.67;24.00;;;;;;;12.22;48.92;102215.66;5012024;28;20050;-72
2022/03/15 00:23:18;;;;;;;40.80;25.13;;;;;;;12.27;48.73;102218.78;5014709;28;20038;-71
2022/03/15 00:25:45;;;;;;;41.25;24.73;;;;;;;11.41;51.09;102207.34;5026846;28;20065;-72
2022/03/15 00:28:11;;;;;;;39.33;24.98;;;;;;;11.93;49.63;102205.63;5012151;28;20547;-72
2022/03/15 00:30:38;;;;;;;36.65;24.13;;;;;;;12.02;49.38;102211.16;5011045;28;20449;-72
2022/03/15 00:33:05;;;;;;;37.47;24.05;;;;;;;11.79;49.31;102205.06;5025756;28;20413;-72
2022/03/15 00:35:31;;;;;;;42.67;24.35;;;;;;;11.74;49.72;102208.19;5014056;28;20073;-72
2022/03/15 00:37:58;;;;;;;34.10;23.20;;;;;;;12.26;48.49;102195.56;5016672;28;20072;-73
2022/03/15 00:40:25;;;;;;;38.35;24.05;;;;;;;12.64;47.13;102196.69;5011037;28;20041;-73
2022/03/15 00:42:52;;;;;;;39.70;23.55;;;;;;;12.55;47.41;102189.44;5007717;28;20432;-72
2022/03/15 00:45:22;;;;;;;41.20;24.40;;;;;;;12.15;48.56;102195.66;5012155;28;20486;-72
2022/03/15 00:47:50;;;;;;;38.88;22.90;;;;;;;11.89;48.76;102197.94;5011773;28;20073;-73
2022/03/15 00:50:17;;;;;;;41.85;24.02;;;;;;;12.34;47.82;102202.94;5012267;28;20124;-72
2022/03/15 00:52:44;;;;;;;37.20;24.05;;;;;;;12.22;48.32;102207.59;5012821;28;20541;-73
2022/03/15 00:55:11;;;;;;;39.15;23.55;;;;;;;12.11;48.84;102207.69;5018668;28;20076;-73
2022/03/15 00:57:38;;;;;;;39.03;23.73;;;;;;;12.45;47.85;102199.31;5034766;28;20049;-73
2022/03/15 01:00:06;;;;;;;38.25;22.60;;;;;;;12.34;48.03;102201.13;5035104;28;20049;-73
2022/03/15 01:02:32;;;;;;;36.10;22.92;;;;;;;12.44;47.58;102197.63;5034605;28;20567;-73
2022/03/15 01:04:59;;;;;;;39.20;24.15;;;;;;;12.40;47.49;102197.88;5033572;28;20404;-72
2022/03/15 01:07:26;;;;;;;43.58;25.38;;;;;;;12.53;47.16;102194.97;5034982;28;20464;-73
2022/03/15 01:09:53;;;;;;;41.33;23.67;;;;;;;12.44;47.22;102192.22;5034750;28;20065;-72
2022/03/15 01:12:19;;;;;;;41.00;23.15;;;;;;;12.10;48.19;102195.19;5035078;28;20486;-72
2022/03/15 01:14:46;;;;;;;36.72;22.83;;;;;;;12.05;48.24;102190.22;5032392;28;20049;-72
2022/03/15 01:17:12;;;;;;;41.97;25.13;;;;;;;12.41;47.11;102191.50;5026370;28;20132;-72
2022/03/15 01:19:39;;;;;;;36.22;22.70;;;;;;;12.43;46.81;102194.06;5034295;28;20050;-73
2022/03/15 01:22:06;;;;;;;39.05;23.58;;;;;;;12.14;47.57;102196.63;5034769;28;20081;-73
2022/03/15 01:24:32;;;;;;;40.55;25.00;;;;;;;12.50;46.83;102194.38;5031850;28;20049;-73
2022/03/15 01:26:58;;;;;;;37.67;24.50;;;;;;;12.43;46.94;102191.38;5019546;28;20045;-72
2022/03/15 01:29:26;;;;;;;37.40;24.73;;;;;;;12.53;46.56;102188.72;5014888;28;20481;-73
2022/03/15 01:31:54;;;;;;;38.55;23.73;;;;;;;12.53;46.56;102178.81;5013597;28;20050;-73
2022/03/15 01:34:20;;;;;;;43.10;24.67;;;;;;;12.58;46.48;102191.84;5014221;28;20100;-73
2022/03/15 01:36:47;;;;;;;40.83;25.10;;;;;;;12.65;46.30;102193.00;5012018;28;20046;-72
2022/03/15 01:39:13;;;;;;;46.60;25.33;;;;;;;12.66;46.21;102194.72;5013220;28;20518;-73
2022/03/15 01:41:40;;;;;;;39.85;24.30;;;;;;;12.46;46.68;102203.72;5018705;28;20137;-72
2022/03/15 01:44:21;;;;;;;37.08;23.60;;;;;;;12.27;46.79;102199.94;5031519;28;20453;-72
2022/03/15 01:46:50;;;;;;;38.20;24.65;;;;;;;12.23;46.80;102197.69;5029183;28;20065;-71
2022/03/15 01:49:17;;;;;;;40.70;24.02;;;;;;;12.15;47.23;102212.66;5027398;28;20061;-72
2022/03/15 01:51:46;;;;;;;40.70;23.33;;;;;;;11.99;47.34;102217.66;5027593;28;20080;-72
2022/03/15 01:54:13;;;;;;;34.67;23.45;;;;;;;12.04;47.30;102223.50;5016971;28;20077;-72
2022/03/15 01:56:42;;;;;;;41.55;23.70;;;;;;;11.98;47.34;102221.34;4995384;28;20136;-73
2022/03/15 01:59:10;;;;;;;37.85;23.88;;;;;;;11.84;47.75;102219.00;5014042;28;20375;-72
2022/03/15 02:01:37;;;;;;;40.38;24.90;;;;;;;12.13;47.07;102225.38;5003903;28;20129;-73
2022/03/15 02:04:05;;;;;;;43.33;25.25;;;;;;;12.23;46.92;102217.34;5013921;28;20046;-72
2022/03/15 02:09:57;;;;;;;40.97;25.38;;;;;;;12.22;46.72;102234.50;5013714;28;20115;-73
2022/03/15 02:12:24;;;;;;;41.80;24.73;;;;;;;12.13;47.02;102230.75;5014164;28;20446;-74
2022/03/15 02:14:52;;;;;;;40.30;26.42;;;;;;;12.17;46.57;102231.34;5019017;28;20046;-73
2022/03/15 02:17:19;;;;;;;42.30;25.35;;;;;;;11.80;47.59;102231.00;5018225;28;20128;-72
2022/03/15 02:19:46;;;;;;;38.80;24.60;;;;;;;12.00;47.15;102231.97;5014698;28;20124;-73
2022/03/15 02:22:12;;;;;;;40.47;24.45;;;;;;;12.00;46.97;102227.44;5019409;28;20128;-73
2022/03/15 02:24:39;;;;;;;41.88;25.80;;;;;;;12.09;46.67;102228.47;5028671;28;20549;-73
2022/03/15 02:27:05;;;;;;;44.67;26.63;;;;;;;11.99;46.92;102222.19;5013617;28;20089;-73
2022/03/15 02:29:33;;;;;;;43.25;26.45;;;;;;;11.96;47.05;102228.69;5022019;28;20128;-73
2022/03/15 02:32:00;;;;;;;43.58;25.63;;;;;;;11.90;47.07;102224.69;5033491;28;20049;-73
2022/03/15 02:34:26;;;;;;;38.90;25.85;;;;;;;11.89;47.13;102222.97;5034035;28;20045;-73
2022/03/15 02:36:53;;;;;;;45.00;25.90;;;;;;;11.96;46.98;102228.69;5032474;28;20048;-74
2022/03/15 02:39:19;;;;;;;40.63;26.88;;;;;;;11.81;47.02;102233.56;5012760;28;20133;-74
2022/03/15 02:41:46;;;;;;;47.55;28.38;;;;;;;12.02;46.63;102240.75;5013609;28;20121;-74
2022/03/15 02:44:12;;;;;;;50.63;26.85;;;;;;;11.90;46.92;102245.38;5013446;28;20136;-73
2022/03/15 02:46:39;;;;;;;43.58;25.40;;;;;;;11.77;47.21;102237.50;5012860;28;20065;-73
2022/03/15 02:49:08;;;;;;;39.72;25.63;;;;;;;11.76;47.03;102235.78;5013153;28;20053;-73
2022/03/15 02:51:35;;;;;;;43.05;25.83;;;;;;;11.65;47.36;102243.88;5013278;28;20456;-72
2022/03/15 02:54:05;;;;;;;48.42;27.27;;;;;;;11.73;47.20;102244.13;5014455;28;20136;-73
2022/03/15 02:56:33;;;;;;;42.90;26.33;;;;;;;11.74;47.11;102236.91;5017986;28;20069;-73
2022/03/15 02:58:59;;;;;;;44.25;27.02;;;;;;;11.84;46.83;102240.50;5029728;28;20056;-74
2022/03/15 03:01:26;;;;;;;47.28;26.85;;;;;;;11.82;46.54;102246.00;5012907;28;20430;-73
2022/03/15 03:03:53;;;;;;;48.28;27.58;;;;;;;11.81;46.76;102235.38;5016698;28;20051;-73
2022/03/15 03:06:20;;;;;;;45.35;26.60;;;;;;;11.90;46.55;102246.22;5023272;28;20552;-73
2022/03/15 03:08:47;;;;;;;48.60;27.35;;;;;;;11.92;46.46;102243.38;5018478;28;20049;-74
2022/03/15 03:11:14;;;;;;;45.35;26.35;;;;;;;12.00;46.17;102245.41;5013145;28;20100;-73
2022/03/15 03:13:42;;;;;;;51.72;28.83;;;;;;;12.00;46.16;102248.09;5012541;28;20452;-73
2022/03/15 03:16:09;;;;;;;47.22;26.33;;;;;;;11.89;46.47;102233.72;5011380;28;20084;-73
2022/03/15 03:18:36;;;;;;;48.90;27.92;;;;;;;11.90;46.38;102240.00;5016405;28;20056;-74
2022/03/15 03:21:04;;;;;;;43.70;27.50;;;;;;;11.81;46.32;102241.63;5014872;28;20136;-73
2022/03/15 03:23:34;;;;;;;48.13;28.05;;;;;;;11.76;46.28;102242.97;5019389;28;20444;-74
2022/03/15 03:26:04;;;;;;;44.53;27.33;;;;;;;11.79;46.32;102245.41;5012626;28;20489;-74
2022/03/15 03:28:38;;;;;;;52.17;27.77;;;;;;;11.77;46.22;102250.09;5010537;28;20132;-73
2022/03/15 03:31:07;;;;;;;46.35;26.58;;;;;;;11.67;46.55;102250.00;5030366;28;20119;-73
2022/03/15 03:33:35;;;;;;;43.40;25.85;;;;;;;11.54;46.71;102252.00;5024326;28;20042;-73
2022/03/15 03:36:02;;;;;;;45.67;28.35;;;;;;;11.56;46.78;102252.72;5030528;28;20053;-73
2022/03/15 03:38:30;;;;;;;49.30;28.15;;;;;;;11.53;46.95;102252.97;5020160;28;20113;-73
2022/03/15 03:40:57;;;;;;;51.13;28.73;;;;;;;11.56;46.51;102263.47;5030904;28;20548;-74
2022/03/15 03:43:23;;;;;;;49.15;28.70;;;;;;;11.41;47.22;102265.59;5014445;28;20103;-74
2022/03/15 03:45:50;;;;;;;53.08;29.92;;;;;;;11.45;46.97;102264.38;5016439;28;20481;-74
2022/03/15 03:48:17;;;;;;;48.35;28.35;;;;;;;11.31;47.15;102264.66;5021464;28;20075;-73
2022/03/15 03:50:43;;;;;;;51.45;28.17;;;;;;;11.34;47.11;102269.78;5032451;28;20064;-73
2022/03/15 03:53:10;;;;;;;47.63;28.10;;;;;;;10.58;48.79;102266.13;5026249;28;20072;-73
2022/03/15 03:55:37;;;;;;;51.75;30.23;;;;;;;10.70;48.61;102266.00;5016185;28;20045;-73
2022/03/15 03:58:03;;;;;;;45.95;27.98;;;;;;;10.32;49.43;102271.72;5031643;28;20104;-73
2022/03/15 04:00:30;;;;;;;58.47;31.90;;;;;;;10.41;49.63;102271.00;5022304;28;20069;-74
2022/03/15 04:03:00;;;;;;;51.65;31.80;;;;;;;10.61;48.95;102263.22;5011942;28;20058;-74
2022/03/15 04:05:30;;;;;;;56.55;32.50;;;;;;;9.74;51.34;102271.72;5016654;28;20124;-74
2022/03/15 04:07:59;;;;;;;61.10;32.33;;;;;;;10.11;50.23;102262.69;5027921;28;21767;-74
2022/03/15 04:10:34;;;;;;;56.90;32.38;;;;;;;10.71;48.32;102261.50;5012456;28;20125;-75
2022/03/15 04:13:01;;;;;;;61.40;32.53;;;;;;;10.03;50.14;102265.97;5016857;28;20064;-74
2022/03/15 04:15:27;;;;;;;61.85;32.30;;;;;;;10.15;50.00;102266.81;5028012;28;20065;-74
2022/03/15 04:17:53;;;;;;;58.35;34.28;;;;;;;10.63;48.62;102263.94;5014978;28;20056;-74
2022/03/15 04:20:20;;;;;;;63.72;32.00;;;;;;;10.85;48.03;102268.44;5013683;28;20047;-74
2022/03/15 04:22:47;;;;;;;59.97;31.42;;;;;;;10.71;47.91;102259.66;5025417;28;20073;-74
2022/03/15 04:25:14;;;;;;;53.10;31.65;;;;;;;10.68;48.09;102270.63;5030525;28;20045;-74
2022/03/15 04:27:40;;;;;;;51.88;29.75;;;;;;;10.44;48.53;102276.13;5028922;28;20069;-74
2022/03/15 04:30:07;;;;;;;50.20;29.65;;;;;;;10.15;49.38;102274.88;5015092;28;20104;-74
2022/03/15 04:32:35;;;;;;;45.72;29.40;;;;;;;10.54;48.21;102268.22;5022790;28;20519;-74
2022/03/15 04:35:02;;;;;;;48.15;28.92;;;;;;;10.70;47.69;102274.06;5019044;28;20144;-74
2022/03/15 04:37:29;;;;;;;51.53;29.95;;;;;;;10.36;48.32;102273.19;5033341;28;20146;-74
2022/03/15 04:39:57;;;;;;;50.65;29.48;;;;;;;10.31;48.60;102278.06;5030095;28;20046;-74
2022/03/15 04:42:24;;;;;;;48.45;29.20;;;;;;;10.43;48.21;102277.09;5014910;28;20103;-74
2022/03/15 04:44:51;;;;;;;103.10;30.88;;;;;;;10.50;48.15;102270.28;5016749;28;20116;-74
2022/03/15 04:47:17;;;;;;;106.97;29.73;;;;;;;10.48;47.83;102266.84;5015982;28;20061;-74
2022/03/15 04:49:44;;;;;;;50.70;29.20;;;;;;;10.59;47.68;102266.03;5014961;28;20049;-74
2022/03/15 04:52:10;;;;;;;62.15;29.45;;;;;;;10.74;47.29;102267.47;5022880;28;20141;-74
2022/03/15 04:54:37;;;;;;;65.22;31.23;;;;;;;10.38;47.83;102263.19;5027742;28;20076;-74
2022/03/15 04:57:03;;;;;;;82.13;29.65;;;;;;;10.61;47.51;102257.84;5019404;28;20516;-74
2022/03/15 04:59:30;;;;;;;55.58;30.05;;;;;;;10.54;47.31;102259.31;5015254;28;20137;-74
2022/03/15 05:01:57;;;;;;;51.65;30.27;;;;;;;10.68;47.31;102251.84;5014549;28;20096;-74
2022/03/15 05:04:23;;;;;;;60.50;31.55;;;;;;;10.61;47.42;102250.63;5025636;28;20038;-74
2022/03/15 05:06:50;;;;;;;51.53;29.55;;;;;;;10.47;47.79;102267.81;5020190;28;20128;-73
2022/03/15 05:09:16;;;;;;;63.85;30.30;;;;;;;10.69;47.15;102258.09;5035280;28;20141;-72
2022/03/15 05:11:49;;;;;;;57.17;31.40;;;;;;;10.42;47.85;102256.59;5032269;28;20124;-74
2022/03/15 05:14:15;;;;;;;66.35;32.08;;;;;;;10.36;47.99;102256.22;5028126;28;20054;-74
2022/03/15 05:16:42;;;;;;;59.20;32.17;;;;;;;10.35;47.76;102258.06;5028589;28;20065;-73
2022/03/15 05:19:08;;;;;;;57.42;31.15;;;;;;;10.44;47.76;102260.03;5000089;28;20570;-73
2022/03/15 05:21:35;;;;;;;54.05;31.08;;;;;;;10.26;48.02;102262.31;5016098;28;20069;-72
2022/03/15 05:24:01;;;;;;;51.78;28.63;;;;;;;10.60;47.45;102257.00;5024286;28;20083;-72
2022/03/15 05:26:28;;;;;;;56.65;32.50;;;;;;;10.60;47.37;102258.81;5030171;28;20448;-71
2022/03/15 05:28:54;;;;;;;57.50;32.10;;;;;;;9.89;49.06;102266.16;5034481;28;20068;-71
2022/03/15 05:31:23;;;;;;;55.00;32.67;;;;;;;10.23;48.60;102256.34;5034256;28;20049;-72
2022/03/15 05:33:50;;;;;;;63.92;33.85;;;;;;;10.04;48.98;102251.56;5034404;28;20045;-71
2022/03/15 05:36:16;;;;;;;57.60;32.65;;;;;;;10.25;48.29;102254.41;5030771;28;20065;-71
2022/03/15 05:38:43;;;;;;;58.35;32.75;;;;;;;9.97;48.95;102248.50;5023315;28;20107;-72
2022/03/15 05:41:10;;;;;;;57.45;32.45;;;;;;;10.15;48.26;102250.72;5021003;28;20133;-72
2022/03/15 05:43:52;;;;;;;55.42;30.83;;;;;;;10.04;48.52;102254.25;5014751;28;20137;-71
2022/03/15 05:46:18;;;;;;;57.42;31.98;;;;;;;9.64;49.64;102256.44;5021074;28;20069;-72
2022/03/15 05:48:45;;;;;;;56.22;31.67;;;;;;;9.98;48.94;102257.41;5030123;28;20493;-71
2022/03/15 05:51:11;;;;;;;55.78;31.35;;;;;;;10.20;48.33;102253.88;5024089;28;20486;-72
2022/03/15 05:53:37;;;;;;;52.42;30.88;;;;;;;10.28;48.21;102254.16;5024884;28;20125;-71
2022/03/15 05:56:04;;;;;;;54.25;30.40;;;;;;;10.08;48.46;102247.66;5022755;28;20045;-72
2022/03/15 05:58:31;;;;;;;50.70;31.40;;;;;;;10.31;47.88;102251.25;5021382;28;20133;-71
2022/03/15 06:00:57;;;;;;;53.35;31.30;;;;;;;9.90;49.18;102255.31;5026819;28;20061;-72
2022/03/15 06:03:24;;;;;;;52.78;31.70;;;;;;;10.11;48.63;102260.84;5012216;28;20057;-72
2022/03/15 06:05:52;;;;;;;54.35;30.23;;;;;;;9.36;50.47;102258.53;5024555;28;20041;-72
2022/03/15 06:08:19;;;;;;;52.55;32.53;;;;;;;10.18;48.68;102259.38;5030530;28;20050;-71
2022/03/15 06:10:45;;;;;;;56.47;32.00;;;;;;;10.07;48.76;102258.53;5024051;28;20075;-71
2022/03/15 06:13:12;;;;;;;54.50;31.67;;;;;;;10.34;48.01;102259.03;5024644;28;20077;-71
2022/03/15 06:15:40;;;;;;;60.42;33.08;;;;;;;10.07;48.75;102255.84;5014640;28;20466;-73
2022/03/15 06:18:06;;;;;;;61.95;33.88;;;;;;;10.20;48.45;102253.88;5023248;28;20053;-71
2022/03/15 06:20:33;;;;;;;57.13;31.08;;;;;;;10.11;48.45;102258.16;5016388;28;20060;-70
2022/03/15 06:23:01;;;;;;;54.42;31.52;;;;;;;9.71;49.65;102263.06;5033753;28;20147;-71
2022/03/15 06:25:27;;;;;;;53.80;30.70;;;;;;;9.13;50.50;102256.66;5024958;28;20520;-71
2022/03/15 06:27:54;;;;;;;58.03;31.15;;;;;;;10.05;48.67;102258.63;5014135;28;20046;-72
2022/03/15 06:30:21;;;;;;;50.92;31.42;;;;;;;10.34;47.88;102258.16;5012636;28;20134;-71
2022/03/15 06:32:48;;;;;;;53.15;30.45;;;;;;;10.56;47.63;102254.69;4994394;28;20057;-71
2022/03/15 06:35:16;;;;;;;53.90;29.70;;;;;;;10.80;47.28;102247.34;4992358;28;20049;-71
2022/03/15 06:37:45;;;;;;;48.88;28.80;;;;;;;10.95;46.78;102251.44;4993028;28;20129;-72
2022/03/15 06:40:24;;;;;;;51.40;29.30;;;;;;;11.28;45.91;102249.66;4994185;28;20049;-71
2022/03/15 06:42:54;;;;;;;49.45;28.70;;;;;;;11.37;45.48;102256.94;4994054;28;20125;-71
2022/03/15 06:45:22;;;;;;;49.60;29.65;;;;;;;11.62;45.17;102255.75;4993650;28;20076;-71
2022/03/15 06:47:49;;;;;;;48.58;29.02;;;;;;;11.29;45.58;102251.34;4992989;28;20046;-71
2022/03/15 06:50:15;;;;;;;45.28;28.05;;;;;;;11.27;45.82;102247.09;4993092;28;20093;-71
2022/03/15 06:52:44;;;;;;;50.03;28.75;;;;;;;11.15;46.56;102259.72;4989978;28;20406;-71
2022/03/15 06:55:13;;;;;;;48.75;29.70;;;;;;;10.96;46.88;102260.34;4989852;28;20498;-73
2022/03/15 06:57:40;;;;;;;50.78;29.88;;;;;;;11.45;45.82;102262.53;4991342;28;20375;-71
2022/03/15 07:00:09;;;;;;;46.45;26.88;;;;;;;11.26;46.15;102261.50;4993270;28;20513;-72
2022/03/15 07:02:37;;;;;;;47.95;27.10;;;;;;;9.92;49.16;102258.72;4990929;28;20062;-71
2022/03/15 07:05:04;;;;;;;46.22;28.15;;;;;;;10.72;47.34;102260.50;4994163;28;20104;-70
2022/03/15 07:07:31;;;;;;;46.28;27.90;;;;;;;10.99;46.73;102257.41;5005470;28;20474;-70
2022/03/15 07:09:57;;;;;;;45.45;26.75;;;;;;;10.12;48.96;102261.69;4996886;28;20483;-71
2022/03/15 07:12:25;;;;;;;47.95;27.80;;;;;;;10.63;47.73;102262.13;4974299;28;20073;-71
2022/03/15 07:14:51;;;;;;;44.45;26.98;;;;;;;10.55;47.97;102263.69;4973588;28;20097;-72
2022/03/15 07:17:19;;;;;;;45.85;27.52;;;;;;;11.20;46.49;102269.06;4973902;28;20471;-71
2022/03/15 07:19:46;;;;;;;46.88;27.20;;;;;;;11.48;45.85;102271.31;4973531;28;20126;-72
2022/03/15 07:22:12;;;;;;;46.60;26.77;;;;;;;11.80;45.02;102269.50;4988951;28;20038;-72
2022/03/15 07:24:39;;;;;;;38.75;25.15;;;;;;;12.47;43.71;102264.63;4990637;28;20126;-72
2022/03/15 07:27:06;;;;;;;43.80;27.60;;;;;;;12.76;42.71;102262.91;4988773;28;20146;-72
2022/03/15 07:29:32;;;;;;;43.47;25.27;;;;;;;13.04;42.54;102263.13;4982472;28;20506;-72
2022/03/15 07:31:59;;;;;;;40.72;25.05;;;;;;;13.70;40.95;102265.16;5017430;28;20454;-72
2022/03/15 07:34:25;;;;;;;43.40;26.83;;;;;;;13.62;41.26;102271.28;5017655;28;20046;-72
2022/03/15 07:36:52;;;;;;;38.78;24.75;;;;;;;13.15;41.65;102272.97;5010162;28;20144;-72
2022/03/15 07:39:19;;;;;;;40.92;25.65;;;;;;;12.75;42.66;102277.38;5028421;28;20478;-72
2022/03/15 07:41:46;;;;;;;37.78;25.05;;;;;;;13.12;42.45;102274.09;5032644;28;20128;-72
2022/03/15 07:44:13;;;;;;;37.05;23.38;;;;;;;13.49;41.47;102274.28;5031590;28;20353;-72
2022/03/15 07:46:40;;;;;;;39.58;25.33;;;;;;;14.63;38.93;102269.78;5031716;28;20080;-72
2022/03/15 07:49:08;;;;;;;38.83;23.40;;;;;;;14.92;38.61;102274.22;5026382;28;20081;-72
2022/03/15 07:51:35;;;;;;;42.58;23.60;;;;;;;15.82;36.76;102277.84;5024563;28;20471;-72
2022/03/15 07:54:01;;;;;;;37.45;23.70;;;;;;;15.58;36.84;102264.94;5015100;28;20116;-73
2022/03/15 07:56:28;;;;;;;32.92;22.63;;;;;;;15.65;37.07;102266.03;5028871;28;20097;-72
2022/03/15 07:58:54;;;;;;;37.20;23.90;;;;;;;15.88;36.92;102260.94;5019500;28;20446;-73
2022/03/15 08:01:20;;;;;;;35.92;23.52;;;;;;;16.36;36.10;102263.13;5017625;28;20124;-72
2022/03/15 08:03:47;;;;;;;38.58;24.15;;;;;;;16.94;35.21;102258.00;5017244;28;20445;-72
2022/03/15 08:06:14;;;;;;;38.20;23.90;;;;;;;17.17;34.31;102258.22;5028668;28;20478;-71
2022/03/15 08:08:42;;;;;;;37.15;24.38;;;;;;;17.56;33.40;102264.75;5028844;28;20165;-71
2022/03/15 08:11:08;;;;;;;37.38;23.65;;;;;;;17.27;34.16;102253.50;5011093;28;20077;-71
2022/03/15 08:13:35;;;;;;;40.83;25.15;;;;;;;17.84;33.60;102250.81;5011056;28;20140;-71
2022/03/15 08:16:03;;;;;;;44.58;26.75;;;;;;;18.09;33.16;102248.91;4993996;28;20141;-71
2022/03/15 08:18:30;;;;;;;41.25;25.00;;;;;;;18.25;32.40;102242.63;5022705;28;20179;-71
2022/03/15 08:20:59;;;;;;;40.58;25.60;;;;;;;18.73;31.86;102232.59;5031129;28;20057;-72
2022/03/15 08:23:29;;;;;;;39.67;24.27;;;;;;;19.15;31.20;102236.78;5031049;28;20053;-71
2022/03/15 08:25:57;;;;;;;42.65;25.50;;;;;;;18.91;31.60;102238.59;5031491;28;20130;-72
2022/03/15 08:28:24;;;;;;;39.20;24.85;;;;;;;18.80;31.93;102236.28;5027125;28;20083;-71
2022/03/15 08:30:52;;;;;;;36.92;24.08;;;;;;;18.45;32.14;102238.50;4992007;28;20050;-71
2022/03/15 08:33:18;;;;;;;37.50;24.45;;;;;;;18.38;32.34;102237.50;4995778;28;20049;-71
2022/03/15 08:35:45;;;;;;;36.65;24.30;;;;;;;19.13;31.30;102233.41;5021330;28;20133;-71
2022/03/15 08:38:12;;;;;;;38.25;24.63;;;;;;;19.57;31.18;102236.28;5021616;28;20175;-70
2022/03/15 08:40:39;;;;;;;39.53;25.15;;;;;;;18.70;31.97;102224.78;5011017;28;20053;-69
2022/03/15 08:43:07;;;;;;;34.15;24.55;;;;;;;19.09;31.67;102221.19;5024820;28;20132;-72
2022/03/15 08:45:34;;;;;;;40.38;25.08;;;;;;;19.32;31.34;102213.88;5014152;28;20069;-70
2022/03/15 08:48:01;;;;;;;40.83;25.60;;;;;;;18.67;32.23;102220.53;5030665;28;20505;-70
2022/03/15 08:50:27;;;;;;;37.85;24.83;;;;;;;18.75;32.31;102215.06;5021804;28;20069;-71
2022/03/15 08:52:55;;;;;;;39.10;25.83;;;;;;;19.68;30.67;102218.69;5010989;28;20069;-70
2022/03/15 08:55:22;;;;;;;38.38;25.20;;;;;;;19.47;30.96;102222.94;5010240;28;20064;-70
2022/03/15 08:57:48;;;;;;;34.38;23.98;;;;;;;19.79;30.53;102220.13;5011682;28;20041;-70
2022/03/15 09:00:15;;;;;;;37.28;25.35;;;;;;;19.59;30.92;102217.91;5029641;28;20472;-70
2022/03/15 09:02:42;;;;;;;37.67;25.02;;;;;;;20.23;30.04;102214.72;5030361;28;20073;-70
2022/03/15 09:05:08;;;;;;;38.95;26.05;;;;;;;18.89;32.00;102212.59;5031239;28;20060;-71
2022/03/15 09:07:39;;;;;;;38.95;24.55;;;;;;;19.29;31.36;102208.81;5031164;28;20117;-70
2022/03/15 09:10:06;;;;;;;38.97;23.15;;;;;;;19.81;30.25;102210.75;5030923;28;20537;-70
2022/03/15 09:12:33;;;;;;;34.65;23.38;;;;;;;19.75;30.55;102208.75;5031067;28;20038;-71
2022/03/15 09:14:59;;;;;;;35.95;23.10;;;;;;;19.39;30.64;102206.69;5017634;28;20137;-71
2022/03/15 09:17:26;;;;;;;38.92;22.00;;;;;;;19.72;30.24;102206.41;5031789;28;20128;-70
2022/03/15 09:20:13;;;;;;;36.60;21.77;;;;;;;19.52;30.59;102202.47;5013891;28;20046;-72
2022/03/15 09:22:39;;;;;;;33.08;21.88;;;;;;;20.29;29.85;102200.34;5015492;28;20072;-71
2022/03/15 09:25:07;;;;;;;34.45;21.70;;;;;;;20.23;29.58;102208.44;5031159;28;20501;-71
2022/03/15 09:27:34;;;;;;;34.35;20.80;;;;;;;20.68;28.64;102202.75;5022610;28;20128;-71
2022/03/15 09:30:01;;;;;;;34.10;20.75;;;;;;;20.32;29.63;102196.41;5026841;28;20389;-70
2022/03/15 09:32:27;;;;;;;31.20;21.00;;;;;;;18.71;31.80;102196.56;5014255;28;20132;-71
2022/03/15 09:34:54;;;;;;;40.78;22.42;;;;;;;18.78;31.90;102200.28;5024989;28;20132;-72
2022/03/15 09:37:21;;;;;;;40.83;24.52;;;;;;;17.72;33.73;102206.06;5034056;28;20049;-72
2022/03/15 09:39:48;;;;;;;42.83;21.88;;;;;;;17.80;33.49;102196.03;5030104;28;20045;-72
2022/03/15 09:42:19;;;;;;;33.88;22.00;;;;;;;19.50;30.85;102189.91;5024458;28;20533;-71
2022/03/15 09:44:47;;;;;;;36.42;23.70;;;;;;;19.14;31.49;102189.72;5017502;28;20124;-72
2022/03/15 09:47:17;;;;;;;33.80;22.20;;;;;;;19.18;31.33;102188.31;5013999;28;20411;-73
2022/03/15 09:49:45;;;;;;;39.60;23.88;;;;;;;19.52;30.87;102189.75;5032883;28;20477;-71
2022/03/15 09:52:16;;;;;;;;;;;;;;;19.55;30.75;102185.78;5034451;28;20057;-72
2022/03/15 09:54:44;;;;;;;39.10;23.00;;;;;;;19.01;31.55;102173.13;5033251;28;20007;-72
2022/03/15 09:57:11;;;;;;;34.88;22.73;;;;;;;18.77;31.78;102193.16;5031137;28;20049;-72
2022/03/15 09:59:38;;;;;;;38.90;22.02;;;;;;;17.51;33.66;102199.28;5022438;28;20481;-72
2022/03/15 10:02:04;;;;;;;32.35;22.77;;;;;;;17.78;33.33;102197.19;5026226;28;20077;-72
2022/03/15 10:04:31;;;;;;;38.15;23.70;;;;;;;16.54;35.59;102191.78;5013433;28;20131;-73
2022/03/15 10:06:58;;;;;;;37.53;21.55;;;;;;;16.65;35.32;102184.22;5026734;28;20073;-72
2022/03/15 10:09:26;;;;;;;43.63;20.95;;;;;;;17.18;33.97;102179.41;5034415;28;20046;-72
2022/03/15 10:11:53;;;;;;;34.15;20.02;;;;;;;18.96;31.33;102184.53;5032080;28;20049;-72
2022/03/15 10:14:20;;;;;;;29.92;19.48;;;;;;;19.61;30.38;102179.59;5028934;28;20124;-72
2022/03/15 10:16:49;;;;;;;33.90;21.35;;;;;;;17.40;33.80;102185.19;5016503;28;20096;-71
2022/03/15 10:19:16;;;;;;;40.13;22.08;;;;;;;17.40;34.18;102188.75;5021473;28;20049;-72
2022/03/15 10:21:51;;;;;;;36.40;21.00;;;;;;;19.33;30.63;102176.63;5022384;28;20091;-73
2022/03/15 10:24:26;;;;;;;42.80;20.95;;;;;;;20.07;29.82;102174.03;5033483;28;20125;-72
2022/03/15 10:26:55;;;;;;;33.08;21.17;;;;;;;18.82;31.42;102173.56;5017313;28;20041;-72
2022/03/15 10:29:24;;;;;;;39.97;23.13;;;;;;;18.70;31.57;102165.81;5017762;28;20446;-72
2022/03/15 10:31:51;;;;;;;43.17;22.60;;;;;;;18.97;30.79;102158.22;5027817;28;20049;-73
2022/03/15 10:34:20;;;;;;;36.00;20.77;;;;;;;19.45;30.44;102170.56;5015457;28;20046;-72
2022/03/15 10:36:49;;;;;;;37.20;20.45;;;;;;;19.77;29.49;102162.31;5016079;28;20045;-73
2022/03/15 10:39:18;;;;;;;35.53;20.77;;;;;;;18.67;31.19;102159.91;5033532;28;20069;-72
2022/03/15 10:41:53;;;;;;;34.95;20.77;;;;;;;17.14;33.91;102157.19;5032623;28;20075;-71
2022/03/15 10:44:34;;;;;;;30.85;19.05;;;;;;;17.25;33.63;102150.59;5027838;28;20477;-71
2022/03/15 10:47:06;;;;;;;32.40;19.27;;;;;;;17.71;32.60;102153.63;5016178;28;20473;-72
2022/03/15 10:49:54;;;;;;;36.72;21.25;;;;;;;17.09;33.79;102154.16;5011970;28;20073;-71
2022/03/15 10:52:36;;;;;;;31.70;19.70;;;;;;;16.42;34.80;102150.59;5016657;28;20458;-72
2022/03/15 10:55:13;;;;;;;;;;;;;;;16.54;34.87;102141.19;5013092;28;20069;-72
2022/03/15 10:57:48;;;;;;;36.63;21.08;;;;;;;17.60;33.31;102137.69;5029269;28;19956;-71
2022/03/15 11:00:16;;;;;;;33.65;21.55;;;;;;;17.44;33.73;102145.84;5012910;28;20064;-72
2022/03/15 11:02:47;;;;;;;37.95;22.75;;;;;;;17.00;34.46;102130.75;5026775;28;20041;-74
2022/03/15 11:05:27;;;;;;;38.78;21.98;;;;;;;17.04;34.29;102136.69;5018203;28;20084;-74
2022/03/15 11:07:55;;;;;;;34.35;20.23;;;;;;;16.80;34.67;102138.34;5006667;28;20474;-74
2022/03/15 11:10:22;;;;;;;39.58;21.20;;;;;;;16.40;34.91;102133.63;5021061;28;20565;-74
2022/03/15 11:13:09;;;;;;;34.13;20.48;;;;;;;16.97;33.81;102128.38;5026259;28;20131;-74
2022/03/15 11:15:48;;;;;;;42.45;22.38;;;;;;;17.40;33.22;102134.50;5007238;28;20062;-74